createdAt,value
2019-01-17T00:00:21.515Z,98270.91
2019-01-17T00:03:20.175Z,98262.98
2019-01-17T00:06:25.030Z,98261.14
2019-01-17T00:09:36.135Z,98264.17
2019-01-17T00:12:54.752Z,98271.24
2019-01-17T00:19:03.836Z,98269.35
2019-01-17T00:22:06.907Z,98263.47
2019-01-17T00:25:12.098Z,98264.95
2019-01-17T00:28:22.093Z,98260.16
2019-01-17T00:31:41.467Z,98265.83
2019-01-17T00:34:40.615Z,98275.89
2019-01-17T00:37:44.175Z,98266.42
2019-01-17T00:40:52.422Z,98261.13
2019-01-17T00:43:50.139Z,98258.95
2019-01-17T00:46:52.617Z,98265.73
2019-01-17T00:49:50.084Z,98252.59
2019-01-17T00:52:45.124Z,98248.09
2019-01-17T00:55:48.993Z,98246.79
2019-01-17T00:58:57.400Z,98254.30
2019-01-17T01:02:04.839Z,98245.22
2019-01-17T01:04:59.871Z,98261.38
2019-01-17T01:07:56.994Z,98248.55
2019-01-17T01:11:13.500Z,98258.95
2019-01-17T01:14:16.863Z,98255.28
2019-01-17T01:17:24.098Z,98246.98
2019-01-17T01:20:20.088Z,98249.16
2019-01-17T01:23:24.687Z,98237.36
2019-01-17T01:26:26.706Z,98257.19
2019-01-17T01:29:23.257Z,98254.34
2019-01-17T01:32:21.764Z,98256.67
2019-01-17T01:35:21.063Z,98261.13
2019-01-17T01:38:39.368Z,98252.48
2019-01-17T01:42:15.329Z,98254.02
2019-01-17T01:45:05.600Z,98250.50
2019-01-17T01:48:04.825Z,98259.97
2019-01-17T01:51:12.479Z,98274.03
2019-01-17T01:53:54.039Z,98273.20
2019-01-17T01:56:35.553Z,98267.07
2019-01-17T01:59:15.465Z,98285.51
2019-01-17T02:01:50.330Z,98272.19
2019-01-17T02:04:26.172Z,98282.81
2019-01-17T02:07:02.146Z,98289.45
2019-01-17T02:10:05.120Z,98285.92
2019-01-17T02:12:43.321Z,98289.34
2019-01-17T02:15:21.554Z,98288.92
2019-01-17T02:18:00.422Z,98301.98
2019-01-17T02:20:43.488Z,98296.18
2019-01-17T02:23:22.726Z,98299.24
2019-01-17T02:26:03.148Z,98308.67
2019-01-17T02:28:40.190Z,98309.42
2019-01-17T02:31:19.691Z,98312.75
2019-01-17T02:34:00.307Z,98309.84
2019-01-17T02:37:08.193Z,98305.28
2019-01-17T02:39:45.181Z,98311.36
2019-01-17T02:42:23.420Z,98324.23
2019-01-17T02:45:01.517Z,98316.94
2019-01-17T02:47:41.205Z,98307.88
2019-01-17T02:50:23.226Z,98311.88
2019-01-17T02:53:01.721Z,98317.27
2019-01-17T02:55:39.390Z,98322.23
2019-01-17T02:58:14.712Z,98320.84
2019-01-17T03:00:52.667Z,98332.73
2019-01-17T03:03:51.997Z,98340.81
2019-01-17T03:06:30.789Z,98341.55
2019-01-17T03:09:22.347Z,98338.34
2019-01-17T03:12:00.361Z,98326.73
2019-01-17T03:14:39.420Z,98320.52
2019-01-17T03:17:14.970Z,98333.55
2019-01-17T03:19:51.790Z,98338.41
2019-01-17T03:22:30.543Z,98336.82
2019-01-17T03:25:12.101Z,98332.19
2019-01-17T03:27:50.748Z,98328.80
2019-01-17T03:30:41.532Z,98331.44
2019-01-17T03:33:18.939Z,98335.70
2019-01-17T03:36:02.734Z,98336.84
2019-01-17T03:38:52.971Z,98349.27
2019-01-17T03:41:28.731Z,98332.81
2019-01-17T03:47:06.022Z,98319.20
2019-01-17T03:49:47.269Z,98326.70
2019-01-17T03:52:27.080Z,98322.67
2019-01-17T03:55:03.594Z,98333.09
2019-01-17T03:57:41.794Z,98318.80
2019-01-17T04:03:14.255Z,98337.41
2019-01-17T04:05:50.272Z,98335.78
2019-01-17T04:08:35.336Z,98342.62
2019-01-17T04:11:09.371Z,98351.00
2019-01-17T04:13:42.311Z,98347.86
2019-01-17T04:16:16.284Z,98352.32
2019-01-17T04:18:50.613Z,98350.41
2019-01-17T04:21:23.738Z,98351.14
2019-01-17T04:23:57.262Z,98348.65
2019-01-17T04:26:30.636Z,98338.11
2019-01-17T04:29:03.964Z,98336.70
2019-01-17T04:31:37.379Z,98339.25
2019-01-17T04:34:11.281Z,98336.25
2019-01-17T04:36:45.002Z,98329.42
2019-01-17T04:39:17.977Z,98322.50
2019-01-17T04:41:50.864Z,98311.92
2019-01-17T04:44:24.623Z,98317.06
2019-01-17T04:46:57.811Z,98318.23
2019-01-17T04:49:30.757Z,98317.92
2019-01-17T04:52:03.984Z,98316.90
2019-01-17T04:54:38.513Z,98320.52
2019-01-17T04:57:11.892Z,98326.73
2019-01-17T04:59:45.396Z,98327.34
2019-01-17T05:02:18.891Z,98328.41
2019-01-17T05:04:54.090Z,98328.41
2019-01-17T05:07:27.182Z,98331.80
2019-01-17T05:10:00.665Z,98332.63
2019-01-17T05:12:34.189Z,98338.58
2019-01-17T05:15:07.655Z,98331.70
2019-01-17T05:17:40.288Z,98340.94
2019-01-17T05:20:14.218Z,98342.70
2019-01-17T05:22:46.842Z,98335.84
2019-01-17T05:25:20.821Z,98326.64
2019-01-17T05:27:54.060Z,98332.58
2019-01-17T05:30:27.760Z,98335.28
2019-01-17T05:33:01.565Z,98335.13
2019-01-17T05:35:34.906Z,98337.55
2019-01-17T05:38:08.555Z,98331.85
2019-01-17T05:40:42.264Z,98335.33
2019-01-17T05:43:15.464Z,98332.67
2019-01-17T05:45:48.468Z,98331.09
2019-01-17T05:48:21.764Z,98339.59
2019-01-17T05:50:55.090Z,98338.95
2019-01-17T05:53:29.050Z,98337.92
2019-01-17T05:56:02.147Z,98333.93
2019-01-17T05:58:35.741Z,98328.59
2019-01-17T06:01:08.793Z,98330.16
2019-01-17T06:03:42.111Z,98323.63
2019-01-17T06:06:15.094Z,98327.25
2019-01-17T06:08:47.983Z,98334.20
2019-01-17T06:11:20.582Z,98340.39
2019-01-17T06:13:53.957Z,98333.89
2019-01-17T06:16:27.768Z,98335.59
2019-01-17T06:19:00.807Z,98341.35
2019-01-17T06:21:34.169Z,98346.94
2019-01-17T06:24:11.096Z,98338.02
2019-01-17T06:26:44.543Z,98332.86
2019-01-17T06:29:17.787Z,98335.84
2019-01-17T06:31:51.196Z,98330.26
2019-01-17T06:34:24.647Z,98330.58
2019-01-17T06:36:58.259Z,98328.91
2019-01-17T06:39:31.641Z,98324.97
2019-01-17T06:42:04.624Z,98328.17
2019-01-17T06:44:37.465Z,98308.66
2019-01-17T06:47:13.254Z,98302.50
2019-01-17T06:49:46.742Z,98311.50
2019-01-17T06:52:19.236Z,98307.83
2019-01-17T06:54:52.323Z,98319.16
2019-01-17T06:57:25.632Z,98317.35
2019-01-17T06:59:59.107Z,98319.06
2019-01-17T07:02:32.038Z,98316.18
2019-01-17T07:05:05.769Z,98323.42
2019-01-17T07:07:39.089Z,98322.27
2019-01-17T07:10:13.469Z,98318.03
2019-01-17T07:12:47.045Z,98324.58
2019-01-17T07:15:20.205Z,98333.66
2019-01-17T07:17:53.609Z,98332.64
2019-01-17T07:20:27.069Z,98340.69
2019-01-17T07:23:00.223Z,98336.98
2019-01-17T07:25:32.876Z,98340.61
2019-01-17T07:28:06.335Z,98351.99
2019-01-17T07:30:40.130Z,98347.49
2019-01-17T07:33:13.183Z,98349.94
2019-01-17T07:35:46.562Z,98353.98
2019-01-17T07:38:20.046Z,98347.02
2019-01-17T07:40:53.356Z,98349.82
2019-01-17T07:43:26.345Z,98351.84
2019-01-17T07:45:59.850Z,98349.94
2019-01-17T07:48:33.172Z,98348.59
2019-01-17T07:51:06.143Z,98346.78
2019-01-17T07:53:38.712Z,98348.69
2019-01-17T07:56:12.531Z,98342.87
2019-01-17T07:58:46.026Z,98344.89
2019-01-17T08:01:19.042Z,98351.56
2019-01-17T08:03:53.198Z,98349.48
2019-01-17T08:06:26.639Z,98345.64
2019-01-17T08:09:00.033Z,98352.77
2019-01-17T08:11:33.505Z,98351.99
2019-01-17T08:14:06.122Z,98352.31
2019-01-17T08:16:39.251Z,98356.41
